Time;durP1;ratioP1;P1;durP2;ratioP2;P2;SDS_P1;SDS_P2;PMS_P1;PMS_P2;Temp;Humidity;BMP_temperature;BMP_pressure;BME280_temperature;BME280_humidity;BME280_pressure;Samples;Min_cycle;Max_cycle;Signal;HPM_P1;HPM_P2
2022/12/20 00:01:56;;;;;;;68.40;29.30;;;;;;;-8.50;97.49;103383.75;108068;1252;70611;-77
2022/12/20 00:04:25;;;;;;;62.90;28.40;;;;;;;-8.55;96.09;103381.77;108002;1257;67858;-80
2022/12/20 00:06:54;;;;;;;67.20;28.90;;;;;;;-8.21;98.24;103382.05;108003;1264;73902;-79
2022/12/20 00:09:24;;;;;;;61.10;27.90;;;;;;;-8.30;94.72;103371.51;108014;1262;60791;-81
2022/12/20 00:11:52;;;;;;;58.40;27.20;;;;;;;-8.41;93.12;103368.27;107950;1263;61781;-76
2022/12/20 00:14:21;;;;;;;62.80;25.90;;;;;;;-8.55;92.87;103371.16;107769;1266;73173;-79
2022/12/20 00:16:50;;;;;;;57.20;26.00;;;;;;;-8.65;92.31;103368.81;108079;1268;69212;-79
2022/12/20 00:19:19;;;;;;;62.20;27.00;;;;;;;-8.73;92.41;103362.84;107956;1259;70524;-81
2022/12/20 00:21:47;;;;;;;61.40;28.40;;;;;;;-8.67;94.74;103361.10;107741;1266;74138;-79
2022/12/20 00:24:16;;;;;;;68.10;27.10;;;;;;;-8.67;94.88;103357.92;107992;1263;59306;-80
2022/12/20 00:26:53;;;;;;;68.90;26.50;;;;;;;-8.56;95.12;103355.36;107994;1264;60096;-76
2022/12/20 00:29:21;;;;;;;60.20;27.30;;;;;;;-8.68;93.39;103347.72;107907;1267;74144;-80
2022/12/20 00:31:50;;;;;;;61.40;27.10;;;;;;;-8.77;92.88;103340.32;108074;1261;71549;-81
2022/12/20 00:34:19;;;;;;;62.60;25.80;;;;;;;-8.82;94.01;103342.31;107778;1270;68269;-82
2022/12/20 00:36:48;;;;;;;58.80;22.90;;;;;;;-8.85;94.30;103339.95;107842;1269;72005;-77
2022/12/20 00:39:17;;;;;;;50.60;22.40;;;;;;;-8.91;93.57;103333.91;108012;1252;59687;-82
2022/12/20 00:41:45;;;;;;;54.10;25.90;;;;;;;-8.98;94.02;103330.86;107837;1262;61156;-81
2022/12/20 00:44:14;;;;;;;63.30;25.60;;;;;;;-8.90;96.15;103332.11;107847;1269;71248;-78
2022/12/20 00:46:43;;;;;;;57.40;25.30;;;;;;;-8.97;94.57;103334.77;108085;1255;71193;-79
2022/12/20 00:49:11;;;;;;;58.80;26.30;;;;;;;-8.98;94.26;103345.39;107933;1266;69953;-78
2022/12/20 00:51:40;;;;;;;49.80;22.70;;;;;;;-9.02;94.13;103344.98;107975;1259;72251;-79
2022/12/20 00:54:09;;;;;;;54.50;23.80;;;;;;;-9.08;93.87;103345.58;107923;1268;58722;-80
2022/12/20 00:56:38;;;;;;;57.70;25.50;;;;;;;-9.09;95.04;103346.02;108015;1266;58633;-81
2022/12/20 00:59:07;;;;;;;54.20;23.30;;;;;;;-8.88;98.85;103338.78;108004;1263;71831;-78
2022/12/20 01:01:35;;;;;;;61.30;25.80;;;;;;;-8.71;98.61;103341.63;108097;1261;71385;-78
2022/12/20 01:04:04;;;;;;;52.90;22.90;;;;;;;-8.59;97.52;103331.56;107884;1264;69559;-78
2022/12/20 01:06:36;;;;;;;58.30;25.40;;;;;;;-8.50;97.18;103318.18;107897;1263;72266;-80
2022/12/20 01:09:05;;;;;;;57.30;25.10;;;;;;;-7.96;98.37;103307.60;107872;1263;62799;-80
2022/12/20 01:11:36;;;;;;;55.00;23.20;;;;;;;-8.05;94.96;103297.73;107994;1263;61781;-78
2022/12/20 01:14:11;;;;;;;64.00;24.90;;;;;;;-7.86;96.61;103287.24;107877;1269;73601;-79
2022/12/20 01:16:45;;;;;;;51.20;23.60;;;;;;;-7.69;96.03;103282.93;108032;1255;70049;-77
2022/12/20 01:19:17;;;;;;;51.10;22.50;;;;;;;-7.92;90.34;103285.83;108028;1267;70169;-77
2022/12/20 01:21:46;;;;;;;48.60;21.90;;;;;;;-8.10;90.88;103286.20;107915;1261;72168;-76
2022/12/20 01:24:18;;;;;;;49.30;22.10;;;;;;;-8.18;91.66;103286.31;108054;1264;59349;-75
2022/12/20 01:26:47;;;;;;;52.10;22.00;;;;;;;-8.24;92.38;103287.54;107804;1269;58806;-78
2022/12/20 01:29:18;;;;;;;53.80;21.40;;;;;;;-8.29;93.26;103288.38;108004;1259;71546;-78
2022/12/20 01:31:47;;;;;;;50.90;21.90;;;;;;;-8.38;91.64;103282.40;108159;1259;72397;-77
2022/12/20 01:34:16;;;;;;;47.00;21.00;;;;;;;-8.37;93.68;103276.36;108068;1260;70020;-77
2022/12/20 01:36:45;;;;;;;53.30;22.00;;;;;;;-8.43;93.82;103262.38;107968;1268;71884;-80
2022/12/20 01:39:15;;;;;;;57.80;23.10;;;;;;;-8.26;97.85;103259.77;107896;1261;62824;-78
2022/12/20 01:41:46;;;;;;;55.80;23.40;;;;;;;-8.09;100.00;103261.00;107859;1272;60846;-78
2022/12/20 01:44:18;;;;;;;53.70;22.20;;;;;;;-8.16;99.39;103263.41;107959;1254;70818;-79
2022/12/20 01:46:49;;;;;;;51.90;20.80;;;;;;;-8.23;96.75;103259.89;108076;1258;71830;-78
2022/12/20 01:49:33;;;;;;;45.60;21.20;;;;;;;-8.25;96.98;103261.82;108096;1261;68528;-80
2022/12/20 01:52:13;;;;;;;52.30;22.90;;;;;;;-8.22;97.54;103254.84;108042;1267;74174;-78
2022/12/20 01:55:01;;;;;;;48.30;21.60;;;;;;;-8.08;97.56;103251.74;107938;1264;61632;-80
2022/12/20 01:57:48;;;;;;;52.90;21.90;;;;;;;-8.05;97.72;103251.91;107939;1269;59650;-77
2022/12/20 02:00:19;;;;;;;47.30;20.70;;;;;;;-8.10;96.84;103237.98;107921;1262;70841;-74
2022/12/20 02:02:49;;;;;;;49.90;21.30;;;;;;;-8.08;97.27;103240.10;107971;1251;72068;-80
2022/12/20 02:05:21;;;;;;;48.90;20.60;;;;;;;-8.06;97.63;103232.94;107941;1264;70338;-78
2022/12/20 02:07:55;;;;;;;44.30;19.90;;;;;;;-7.94;99.04;103230.06;107822;1267;72710;-79
2022/12/20 02:10:34;;;;;;;49.40;22.70;;;;;;;-7.64;99.82;103218.16;107921;1270;61269;-79
2022/12/20 02:13:14;;;;;;;49.20;20.30;;;;;;;-7.66;99.90;103211.48;107888;1264;59739;-79
2022/12/20 02:15:46;;;;;;;48.60;21.20;;;;;;;-7.70;97.60;103206.73;107906;1260;73438;-79
2022/12/20 02:18:19;;;;;;;;;;;;;;;-7.76;96.70;103200.58;108104;1262;72764;-79
2022/12/20 02:20:59;;;;;;;55.10;20.80;;;;;;;-7.78;97.30;103193.36;107936;1271;69579;-79
2022/12/20 02:24:01;;;;;;;57.30;24.50;;;;;;;-7.65;98.80;103186.12;107984;1263;71072;-79
2022/12/20 02:27:18;;;;;;;59.70;24.50;;;;;;;-7.57;98.16;103180.73;107961;1263;60478;-80
2022/12/20 02:30:16;;;;;;;61.40;24.80;;;;;;;-7.39;99.48;103171.11;107993;1267;61274;-79
2022/12/20 02:32:59;;;;;;;53.90;22.40;;;;;;;-7.21;99.66;103165.08;107990;1266;71977;-81
2022/12/20 02:35:31;;;;;;;;;;;;;;;-7.19;96.77;103160.44;107948;1258;70842;-79
2022/12/20 02:38:22;;;;;;;56.80;22.60;;;;;;;-7.20;96.26;103159.70;107851;1265;69480;-77
2022/12/20 02:41:02;;;;;;;50.30;21.60;;;;;;;-7.10;96.88;103158.25;107841;1266;71395;-80
2022/12/20 02:46:22;;;;;;;45.70;19.30;;;;;;;-7.01;96.71;103135.70;107964;1264;60669;-80
2022/12/20 02:48:57;;;;;;;56.30;22.40;;;;;;;-7.05;96.52;103129.80;107886;1263;73463;-80
2022/12/20 02:51:29;;;;;;;44.60;19.10;;;;;;;-6.97;96.15;103119.27;108058;1258;71567;-80
2022/12/20 02:53:59;;;;;;;42.50;18.60;;;;;;;-6.97;96.47;103114.18;107862;1267;69077;-80
2022/12/20 02:57:22;;;;;;;49.40;22.00;;;;;;;-7.06;96.59;103107.90;108033;1264;71162;-81
2022/12/20 03:00:00;;;;;;;46.10;19.10;;;;;;;-7.13;96.33;103109.52;108079;1256;62711;-79
2022/12/20 03:03:21;;;;;;;43.10;18.30;;;;;;;-7.25;95.46;103102.96;107892;1269;59528;-79
2022/12/20 03:05:25;;;;;;;50.20;19.90;;;;;;;-7.17;97.88;103102.73;107848;1257;70623;-78
2022/12/20 03:07:55;;;;;;;54.10;21.20;;;;;;;-6.90;98.72;103095.83;108123;1261;69546;-79
2022/12/20 03:10:25;;;;;;;44.50;19.80;;;;;;;-6.98;96.70;103088.22;107975;1263;70439;-79
2022/12/20 03:12:54;;;;;;;47.90;18.60;;;;;;;-7.10;94.68;103085.25;107906;1267;72837;-78
2022/12/20 03:15:23;;;;;;;48.70;20.70;;;;;;;-7.16;95.77;103081.95;107960;1264;59935;-79
2022/12/20 03:17:53;;;;;;;43.20;19.00;;;;;;;-6.99;97.67;103079.39;108008;1270;58814;-79
2022/12/20 03:20:22;;;;;;;49.60;20.10;;;;;;;-6.99;96.80;103070.59;108001;1265;73467;-79
2022/12/20 03:22:51;;;;;;;44.00;18.50;;;;;;;-7.05;95.21;103074.39;107918;1259;71908;-79
2022/12/20 03:25:21;;;;;;;50.60;20.10;;;;;;;-6.87;96.28;103074.40;108081;1260;68340;-79
2022/12/20 03:27:50;;;;;;;42.70;19.30;;;;;;;-6.97;94.03;103067.61;108019;1263;73807;-79
2022/12/20 03:30:19;;;;;;;41.20;17.30;;;;;;;-7.03;94.15;103070.41;107936;1267;60316;-78
2022/12/20 03:32:48;;;;;;;44.10;18.80;;;;;;;-7.05;95.13;103067.98;108056;1261;60002;-78
2022/12/20 03:35:17;;;;;;;40.80;17.60;;;;;;;-7.08;96.46;103070.73;108171;1264;72130;-80
2022/12/20 03:37:46;;;;;;;43.60;19.20;;;;;;;-6.92;98.29;103071.51;108133;1258;70229;-81
2022/12/20 03:40:15;;;;;;;47.20;20.80;;;;;;;-6.84;98.59;103068.42;108006;1267;68464;-80
2022/12/20 03:42:44;;;;;;;41.50;17.80;;;;;;;-6.72;98.27;103071.23;107920;1264;72247;-81
2022/12/20 03:45:12;;;;;;;43.60;18.90;;;;;;;-6.92;95.96;103073.91;108030;1267;61934;-80
2022/12/20 03:47:41;;;;;;;43.40;18.90;;;;;;;-6.99;94.57;103076.66;107960;1261;60804;-80
2022/12/20 03:50:11;;;;;;;43.50;18.00;;;;;;;-7.09;93.46;103082.40;107988;1263;70966;-79
2022/12/20 03:52:39;;;;;;;45.50;19.10;;;;;;;-7.16;93.41;103079.05;107937;1269;72152;-82
2022/12/20 03:55:11;;;;;;;43.30;18.10;;;;;;;-7.20;94.58;103068.92;108005;1262;68869;-83
2022/12/20 03:57:41;;;;;;;46.20;18.20;;;;;;;-7.12;96.53;103057.55;107871;1264;73620;-79
2022/12/20 04:00:26;;;;;;;48.00;20.70;;;;;;;-7.09;95.79;103053.94;107980;1264;59933;-77
2022/12/20 04:02:56;;;;;;;51.50;21.40;;;;;;;-6.83;96.68;103036.95;108029;1257;61244;-79
2022/12/20 04:05:25;;;;;;;47.40;20.60;;;;;;;-6.81;95.53;103036.34;107986;1266;72857;-79
2022/12/20 04:07:54;;;;;;;47.30;19.30;;;;;;;-6.78;94.08;103034.57;107917;1257;71194;-79
2022/12/20 04:10:23;;;;;;;47.10;20.60;;;;;;;-6.79;94.29;103032.17;107997;1264;67865;-80
2022/12/20 04:12:52;;;;;;;41.00;18.30;;;;;;;-6.70;93.20;103037.73;107968;1261;70349;-77
2022/12/20 04:15:21;;;;;;;47.60;19.30;;;;;;;-6.64;93.07;103037.62;107790;1261;61749;-78
2022/12/20 04:17:49;;;;;;;50.30;21.10;;;;;;;-6.50;93.77;103041.66;107708;1260;61533;-79
2022/12/20 04:20:19;;;;;;;42.70;19.40;;;;;;;-6.46;93.02;103041.65;107861;1267;71619;-80
2022/12/20 04:23:24;;;;;;;36.00;15.50;;;;;;;-6.50;90.64;103039.98;108076;1253;71136;-78
2022/12/20 04:25:53;;;;;;;45.20;19.20;;;;;;;-6.45;93.61;103040.48;107981;1257;68554;-82
2022/12/20 04:28:22;;;;;;;46.60;19.70;;;;;;;-6.51;93.40;103044.36;107938;1257;72043;-78
2022/12/20 04:30:51;;;;;;;40.20;19.60;;;;;;;-6.62;92.27;103033.97;107881;1259;60545;-81
2022/12/20 04:33:24;;;;;;;44.30;20.20;;;;;;;-6.71;91.86;103029.77;107870;1267;60745;-79
2022/12/20 04:35:54;;;;;;;41.30;17.90;;;;;;;-6.70;93.56;103024.18;107811;1263;72692;-84
2022/12/20 04:38:24;;;;;;;38.80;17.00;;;;;;;-6.70;93.58;103014.70;107907;1260;70577;-82
2022/12/20 04:40:54;;;;;;;40.60;15.60;;;;;;;-6.83;91.60;102996.95;107909;1260;69277;-80
2022/12/20 04:43:23;;;;;;;40.50;16.10;;;;;;;-6.92;92.47;102986.80;107871;1261;73775;-80
2022/12/20 04:45:55;;;;;;;43.70;18.20;;;;;;;-6.94;93.41;102980.45;107736;1262;60396;-84
2022/12/20 04:48:26;;;;;;;50.30;20.20;;;;;;;-6.93;94.68;102975.42;107742;1260;58722;-80
2022/12/20 04:51:15;;;;;;;47.70;18.90;;;;;;;-6.94;93.00;102954.20;107946;1267;72613;-80
2022/12/20 04:53:47;;;;;;;46.50;18.60;;;;;;;-6.99;92.82;102944.02;108018;1252;71656;-79
2022/12/20 04:56:28;;;;;;;46.90;17.60;;;;;;;-6.90;94.99;102939.27;107831;1267;70385;-81
2022/12/20 04:59:01;;;;;;;42.70;18.30;;;;;;;-6.96;93.36;102941.24;107682;1260;71685;-79
2022/12/20 05:01:30;;;;;;;43.40;16.90;;;;;;;-7.03;92.37;102945.09;107984;1260;60497;-84
2022/12/20 05:03:59;;;;;;;39.50;16.70;;;;;;;-7.08;91.59;102938.63;107993;1257;58567;-85
2022/12/20 05:06:30;;;;;;;50.90;19.20;;;;;;;-7.08;91.72;102934.58;107874;1266;71567;-82
2022/12/20 05:08:59;;;;;;;40.30;17.40;;;;;;;-7.09;91.71;102923.02;108032;1262;70266;-82
2022/12/20 05:11:28;;;;;;;41.00;18.50;;;;;;;-7.10;91.56;102911.61;107940;1264;67006;-83
2022/12/20 05:13:57;;;;;;;45.60;19.00;;;;;;;-7.12;91.76;102905.77;107939;1267;71992;-81
2022/12/20 05:16:26;;;;;;;48.60;20.50;;;;;;;-7.16;91.95;102898.86;107981;1258;59750;-85
2022/12/20 05:18:55;;;;;;;42.80;18.00;;;;;;;-7.19;92.43;102888.10;107965;1256;58621;-84
2022/12/20 05:27:11;;;;;;;56.80;24.10;;;;;;;-7.03;92.91;102905.95;107811;1266;67835;-81
2022/12/20 05:29:40;;;;;;;60.30;23.00;;;;;;;-7.03;92.21;102902.22;107788;1263;71868;-89
2022/12/20 05:32:09;;;;;;;55.20;23.40;;;;;;;-7.03;92.13;102900.67;107938;1262;62404;-88
2022/12/20 05:34:40;;;;;;;54.00;21.80;;;;;;;-7.05;91.94;102902.31;107842;1260;59242;-88
2022/12/20 05:37:09;;;;;;;47.40;19.50;;;;;;;-7.05;92.15;102901.82;107775;1261;70787;-89
2022/12/20 05:39:38;;;;;;;45.60;19.10;;;;;;;-7.04;92.19;102900.81;107800;1253;71255;-88
2022/12/20 05:42:11;;;;;;;;;;;;;;;-7.04;91.99;102899.64;107916;1256;71511;-81
2022/12/20 05:44:40;;;;;;;39.40;17.70;;;;;;;-7.05;92.03;102902.80;108084;1257;73284;-86
2022/12/20 05:47:09;;;;;;;45.60;18.90;;;;;;;-7.07;92.03;102897.65;107846;1257;61211;-88
2022/12/20 05:49:39;;;;;;;40.60;19.00;;;;;;;-7.09;91.26;102898.45;107776;1260;60428;-89
2022/12/20 05:52:09;;;;;;;45.70;20.90;;;;;;;-7.11;91.36;102891.09;108151;1258;72662;-88
2022/12/20 05:54:39;;;;;;;48.40;22.10;;;;;;;-7.08;91.58;102887.14;108295;1255;71243;-87
2022/12/20 05:57:18;;;;;;;52.80;22.30;;;;;;;-7.07;91.86;102890.23;107921;1260;69986;-79
2022/12/20 05:59:47;;;;;;;63.70;25.40;;;;;;;-7.03;91.77;102893.23;108033;1263;72304;-87
2022/12/20 06:02:17;;;;;;;68.30;29.90;;;;;;;-7.01;91.72;102888.91;107997;1262;61187;-86
2022/12/20 06:04:49;;;;;;;65.90;29.50;;;;;;;-7.01;91.66;102886.37;107840;1260;60685;-86
2022/12/20 06:07:23;;;;;;;;;;;;;;;-6.96;91.81;102890.11;107791;1264;73919;-86
2022/12/20 06:09:57;;;;;;;50.40;20.60;;;;;;;-6.96;91.49;102887.23;107863;1262;69862;-86
2022/12/20 06:12:37;;;;;;;43.10;18.70;;;;;;;-6.90;90.98;102886.55;107634;1270;67823;-87
2022/12/20 06:15:08;;;;;;;42.00;18.00;;;;;;;-6.82;90.68;102893.95;107727;1267;74054;-88
2022/12/20 06:17:38;;;;;;;47.40;19.10;;;;;;;-6.70;91.14;102897.09;107775;1270;62326;-88
2022/12/20 06:20:08;;;;;;;54.70;22.70;;;;;;;-6.57;90.87;102902.92;107782;1257;58657;-87
2022/12/20 06:22:37;;;;;;;43.30;20.50;;;;;;;-6.42;91.21;102902.74;107823;1260;71625;-88
2022/12/20 06:25:08;;;;;;;59.10;24.00;;;;;;;-6.28;91.01;102897.26;107928;1262;70787;-88
2022/12/20 06:27:40;;;;;;;41.30;18.90;;;;;;;-6.12;90.11;102887.77;107712;1270;66769;-90
2022/12/20 06:30:14;;;;;;;51.40;21.80;;;;;;;-5.95;89.21;102883.17;107644;1269;71874;-89
2022/12/20 06:32:59;;;;;;;48.60;20.80;;;;;;;-5.74;89.80;102873.95;107867;1266;59624;-90
2022/12/20 06:35:29;;;;;;;47.40;20.70;;;;;;;-5.57;89.93;102872.21;107810;1261;60359;-88
2022/12/20 06:37:59;;;;;;;58.30;24.70;;;;;;;-5.44;89.82;102864.09;107837;1264;73940;-89
2022/12/20 06:40:30;;;;;;;48.80;21.50;;;;;;;-5.30;89.93;102865.85;107856;1261;71922;-88
2022/12/20 06:43:01;;;;;;;42.00;16.70;;;;;;;-5.19;89.98;102858.82;107820;1266;68984;-88
2022/12/20 06:45:30;;;;;;;42.30;18.50;;;;;;;-5.09;88.24;102858.77;107798;1260;71554;-90
2022/12/20 06:48:10;;;;;;;42.00;16.70;;;;;;;-4.97;83.59;102851.42;107798;1260;61262;-83
2022/12/20 06:50:40;;;;;;;49.20;20.40;;;;;;;-4.82;85.69;102858.10;107744;1270;60052;-85
2022/12/20 06:53:09;;;;;;;41.30;16.30;;;;;;;-4.71;84.34;102861.10;107835;1261;72294;-85
2022/12/20 06:55:38;;;;;;;34.90;15.50;;;;;;;-4.59;84.62;102865.31;107730;1263;70840;-84
2022/12/20 06:58:07;;;;;;;38.30;14.80;;;;;;;-4.47;84.29;102851.98;107623;1263;68030;-83
2022/12/20 07:00:38;;;;;;;34.70;15.00;;;;;;;-4.36;84.60;102837.45;107866;1262;73894;-84
2022/12/20 07:03:06;;;;;;;35.60;14.40;;;;;;;-4.31;84.13;102831.45;107888;1258;62589;-85
2022/12/20 07:05:36;;;;;;;30.90;15.00;;;;;;;-4.26;79.51;102823.73;107828;1273;59999;-83
2022/12/20 07:08:05;;;;;;;30.30;13.60;;;;;;;-4.17;79.77;102820.70;107718;1266;72599;-85
2022/12/20 07:10:36;;;;;;;34.60;15.40;;;;;;;-4.05;74.90;102817.38;107768;1272;70151;-85
2022/12/20 07:13:04;;;;;;;33.20;13.60;;;;;;;-4.00;75.03;102822.25;107638;1261;69735;-86
2022/12/20 07:15:34;;;;;;;31.30;14.00;;;;;;;-3.88;76.34;102827.11;107807;1269;71089;-85
2022/12/20 07:18:03;;;;;;;39.70;15.20;;;;;;;-3.77;75.96;102825.30;107676;1266;61178;-84
2022/12/20 07:20:32;;;;;;;31.20;14.00;;;;;;;-3.69;75.44;102821.03;107788;1260;59258;-84
2022/12/20 07:23:01;;;;;;;29.90;14.20;;;;;;;-3.63;74.83;102818.42;107742;1266;70887;-85
2022/12/20 07:25:30;;;;;;;29.60;12.50;;;;;;;-3.49;75.67;102815.98;107805;1258;71865;-85
2022/12/20 07:27:58;;;;;;;31.70;11.80;;;;;;;-3.41;74.29;102818.85;107770;1265;68891;-86
2022/12/20 07:30:27;;;;;;;28.30;13.40;;;;;;;-3.31;74.09;102817.17;107782;1270;71583;-84
2022/12/20 07:32:56;;;;;;;30.70;11.90;;;;;;;-3.20;75.56;102808.16;107785;1260;60432;-84
2022/12/20 07:35:25;;;;;;;29.00;11.80;;;;;;;-3.08;75.84;102806.16;107705;1261;61153;-86
2022/12/20 07:37:54;;;;;;;31.50;12.10;;;;;;;-2.98;76.68;102800.71;107812;1266;71179;-86
2022/12/20 07:40:23;;;;;;;31.80;12.50;;;;;;;-2.90;74.11;102798.10;107884;1258;72070;-86
2022/12/20 07:42:52;;;;;;;29.50;14.00;;;;;;;-2.78;73.38;102799.16;107728;1266;70196;-85
2022/12/20 07:45:25;;;;;;;28.60;12.50;;;;;;;-2.65;71.93;102793.58;107787;1261;74307;-85
2022/12/20 07:47:56;;;;;;;25.10;12.50;;;;;;;-2.55;69.63;102793.55;107803;1257;59912;-85
2022/12/20 07:50:28;;;;;;;26.80;10.30;;;;;;;-2.41;70.60;102784.36;107843;1268;59874;-85
2022/12/20 07:52:58;;;;;;;34.40;15.10;;;;;;;-2.32;68.87;102780.23;107678;1264;71267;-86
2022/12/20 07:55:30;;;;;;;29.10;12.70;;;;;;;-2.30;68.44;102778.40;108152;1257;71201;-86
2022/12/20 07:58:05;;;;;;;30.00;13.30;;;;;;;-2.22;68.33;102773.73;107887;1260;70255;-86
2022/12/20 08:00:35;;;;;;;38.70;16.80;;;;;;;-2.07;68.17;102766.58;107711;1266;74186;-85
2022/12/20 08:03:05;;;;;;;28.80;14.90;;;;;;;-1.89;68.72;102763.73;107763;1266;58731;-85
2022/12/20 08:05:37;;;;;;;40.50;15.20;;;;;;;-1.89;66.98;102758.25;107793;1267;61199;-86
2022/12/20 08:08:07;;;;;;;30.40;12.10;;;;;;;-1.83;66.52;102752.34;107690;1267;72785;-85
2022/12/20 08:10:37;;;;;;;25.20;12.60;;;;;;;-1.76;66.87;102746.27;107949;1257;69447;-86
2022/12/20 08:13:07;;;;;;;23.60;10.90;;;;;;;-1.65;66.26;102739.58;107627;1274;68576;-85
2022/12/20 08:15:36;;;;;;;30.20;11.30;;;;;;;-1.63;64.66;102733.09;107656;1264;71246;-85
2022/12/20 08:18:05;;;;;;;22.30;9.90;;;;;;;-1.53;64.25;102729.44;107822;1259;59634;-87
2022/12/20 08:20:34;;;;;;;26.50;10.60;;;;;;;-1.49;63.09;102717.84;107762;1267;60979;-86
2022/12/20 08:23:03;;;;;;;15.30;8.60;;;;;;;-1.49;62.49;102707.25;107698;1260;72314;-86
2022/12/20 08:25:34;;;;;;;27.10;11.80;;;;;;;-1.37;62.30;102707.70;107849;1261;70909;-82
2022/12/20 08:28:09;;;;;;;25.20;12.50;;;;;;;-1.35;61.75;102689.10;107792;1265;68381;-85
2022/12/20 08:30:38;;;;;;;27.40;11.80;;;;;;;-1.25;60.94;102692.92;107771;1270;70847;-84
2022/12/20 08:33:07;;;;;;;26.60;12.80;;;;;;;-1.21;60.87;102684.92;107753;1264;58836;-86
2022/12/20 08:35:36;;;;;;;25.00;10.80;;;;;;;-1.09;60.59;102681.25;107680;1265;58840;-86
2022/12/20 08:38:04;;;;;;;20.50;8.90;;;;;;;-0.99;60.56;102675.86;107618;1266;73466;-86
2022/12/20 08:40:33;;;;;;;21.70;10.60;;;;;;;-0.88;60.52;102675.24;107777;1264;71224;-88
2022/12/20 08:43:02;;;;;;;46.70;13.20;;;;;;;-0.81;60.62;102671.70;107670;1266;69043;-86
2022/12/20 08:45:37;;;;;;;28.90;12.80;;;;;;;-0.76;61.06;102672.23;107481;1270;73636;-84
2022/12/20 08:48:06;;;;;;;30.00;13.10;;;;;;;-0.68;61.06;102676.56;107618;1265;58722;-86
2022/12/20 08:50:35;;;;;;;22.90;10.20;;;;;;;-0.63;60.94;102665.63;107646;1267;61280;-86
2022/12/20 08:53:03;;;;;;;22.30;10.80;;;;;;;-0.52;60.83;102663.13;107605;1259;73848;-85
2022/12/20 08:55:32;;;;;;;28.10;12.70;;;;;;;-0.42;60.93;102662.66;107624;1267;73215;-83
2022/12/20 08:58:01;;;;;;;27.80;12.30;;;;;;;-0.30;60.50;102664.60;107629;1266;68432;-86
2022/12/20 09:00:30;;;;;;;26.50;12.20;;;;;;;-0.27;60.00;102664.59;107663;1264;71816;-86
2022/12/20 09:02:59;;;;;;;26.60;10.40;;;;;;;-0.12;59.97;102662.59;107628;1264;59564;-85
2022/12/20 09:05:28;;;;;;;17.30;6.80;;;;;;;-0.03;59.87;102664.52;107554;1266;60483;-84
2022/12/20 09:07:56;;;;;;;22.60;10.80;;;;;;;0.11;59.65;102664.03;107742;1260;74802;-83
2022/12/20 09:10:25;;;;;;;24.80;10.60;;;;;;;0.34;59.98;102665.10;107740;1261;70366;-86
2022/12/20 09:12:54;;;;;;;25.70;11.20;;;;;;;0.48;58.86;102657.06;107662;1260;68666;-86
2022/12/20 09:15:23;;;;;;;23.30;10.70;;;;;;;0.64;58.29;102655.17;107659;1260;72947;-87
2022/12/20 09:17:51;;;;;;;29.00;12.00;;;;;;;0.86;60.62;102653.27;107647;1256;59968;-86
2022/12/20 09:20:20;;;;;;;24.30;10.80;;;;;;;0.87;58.07;102637.16;107570;1266;59959;-86
2022/12/20 09:22:49;;;;;;;26.00;10.80;;;;;;;0.51;57.86;102635.63;107676;1260;71575;-85
2022/12/20 09:25:18;;;;;;;24.70;10.80;;;;;;;0.49;58.58;102626.53;107792;1264;69724;-85
2022/12/20 09:27:47;;;;;;;22.20;10.60;;;;;;;0.38;58.32;102622.76;107612;1261;70844;-88
2022/12/20 09:30:16;;;;;;;19.60;9.60;;;;;;;0.36;58.59;102619.33;107643;1269;73217;-86
2022/12/20 09:32:45;;;;;;;22.90;11.10;;;;;;;0.33;58.71;102618.65;107680;1270;60725;-86
2022/12/20 09:35:14;;;;;;;22.70;9.90;;;;;;;0.35;59.12;102612.64;107678;1266;61479;-86
2022/12/20 09:37:50;;;;;;;25.70;10.60;;;;;;;0.38;58.96;102606.48;107687;1262;71958;-85
2022/12/20 09:40:26;;;;;;;18.60;9.20;;;;;;;0.38;58.44;102599.10;107745;1256;70216;-85
2022/12/20 09:42:55;;;;;;;19.70;9.90;;;;;;;0.45;58.16;102596.71;107632;1261;70335;-85
2022/12/20 09:45:35;;;;;;;15.90;7.40;;;;;;;0.51;58.06;102589.48;107764;1260;74207;-84
2022/12/20 09:48:15;;;;;;;20.00;9.70;;;;;;;0.62;58.23;102582.30;107815;1270;59769;-85
2022/12/20 09:51:09;;;;;;;25.30;9.80;;;;;;;0.72;58.15;102580.55;107822;1263;59625;-85
2022/12/20 09:54:14;;;;;;;;;;;;;;;0.79;58.13;102573.87;107688;1256;73467;-85
2022/12/20 09:57:23;;;;;;;18.80;8.90;;;;;;;0.95;58.01;102575.89;107686;1258;71719;-85
2022/12/20 09:59:55;;;;;;;18.90;9.80;;;;;;;1.14;57.57;102570.15;106184;1263;1507299;-78
2022/12/20 10:02:27;;;;;;;17.70;8.70;;;;;;;1.29;56.98;102563.75;107576;1263;71497;-82
2022/12/20 10:05:31;;;;;;;21.30;9.40;;;;;;;1.46;57.24;102551.64;107685;1266;60295;-85
2022/12/20 10:08:55;;;;;;;18.80;8.90;;;;;;;1.63;56.79;102541.95;108109;1255;61254;-84
2022/12/20 10:11:55;;;;;;;17.50;8.10;;;;;;;1.78;55.87;102535.31;107657;1260;72900;-78
2022/12/20 10:14:59;;;;;;;16.20;8.10;;;;;;;1.87;55.74;102528.38;107971;1260;61491;-84
2022/12/20 10:17:50;;;;;;;17.70;7.60;;;;;;;2.03;55.60;102510.90;107634;1270;69379;-83
2022/12/20 10:20:45;;;;;;;18.60;8.10;;;;;;;2.16;55.18;102509.06;107834;1267;73040;-80
2022/12/20 10:24:00;;;;;;;17.50;7.70;;;;;;;2.10;55.36;102497.77;107765;1270;59204;-82
2022/12/20 10:26:32;;;;;;;16.50;8.20;;;;;;;2.11;55.29;102484.37;107626;1264;61278;-84
2022/12/20 10:29:01;;;;;;;16.80;7.20;;;;;;;2.07;55.32;102480.45;107533;1269;71306;-85
2022/12/20 10:31:30;;;;;;;14.20;6.90;;;;;;;2.18;55.50;102478.28;107871;1256;70218;-86
2022/12/20 10:33:59;;;;;;;16.80;7.80;;;;;;;2.19;55.24;102473.64;107803;1267;67117;-86
2022/12/20 10:36:34;;;;;;;13.20;6.50;;;;;;;2.50;55.87;102475.39;107721;1261;71867;-86
2022/12/20 10:39:07;;;;;;;17.80;8.40;;;;;;;2.73;55.54;102482.70;107575;1266;58482;-85
2022/12/20 10:41:39;;;;;;;18.90;8.70;;;;;;;2.86;54.93;102489.27;107628;1266;58793;-84
2022/12/20 10:44:14;;;;;;;19.30;7.80;;;;;;;2.94;56.12;102487.27;107757;1260;73431;-79
2022/12/20 10:46:49;;;;;;;18.10;7.90;;;;;;;3.20;55.77;102486.77;107890;1260;71705;-80
2022/12/20 10:49:37;;;;;;;17.90;9.20;;;;;;;3.19;55.28;102480.40;107752;1264;70255;-78
2022/12/20 10:52:09;;;;;;;17.60;8.20;;;;;;;3.11;54.46;102474.84;107740;1268;74236;-78
2022/12/20 10:54:41;;;;;;;19.00;7.90;;;;;;;3.25;54.73;102470.50;107772;1261;60196;-78
2022/12/20 10:57:23;;;;;;;25.00;9.20;;;;;;;3.23;53.92;102467.44;107822;1266;58604;-82
2022/12/20 11:00:07;;;;;;;15.70;7.20;;;;;;;3.33;54.53;102453.35;107806;1264;73463;-84
2022/12/20 11:02:39;;;;;;;17.50;8.40;;;;;;;3.56;54.95;102452.99;107788;1260;62844;-79
2022/12/20 11:05:11;;;;;;;118.50;18.50;;;;;;;3.54;54.00;102447.02;107816;1270;69247;-78
2022/12/20 11:08:14;;;;;;;27.50;8.40;;;;;;;3.78;53.74;102439.73;107826;1260;70404;-77
2022/12/20 11:11:13;;;;;;;14.10;6.90;;;;;;;4.25;54.11;102432.02;107675;1262;57642;-81
2022/12/20 11:13:44;;;;;;;228.60;29.90;;;;;;;4.58;51.67;102417.52;107734;1266;60384;-77
2022/12/20 11:16:23;;;;;;;20.90;9.70;;;;;;;4.10;52.32;102414.35;107539;1266;73119;-80
2022/12/20 11:19:12;;;;;;;207.30;26.50;;;;;;;4.40;54.13;102413.96;107867;1258;69977;-83
2022/12/20 11:22:09;;;;;;;16.80;7.90;;;;;;;4.82;53.33;102411.55;107623;1263;68088;-83
2022/12/20 11:25:16;;;;;;;192.60;26.20;;;;;;;5.39;51.91;102402.33;107804;1260;71888;-82
2022/12/20 11:28:39;;;;;;;14.00;7.90;;;;;;;5.48;50.45;102396.56;107718;1267;58805;-81
2022/12/20 11:31:51;;;;;;;62.70;12.50;;;;;;;6.03;48.88;102386.55;107819;1260;60476;-80
2022/12/20 11:34:43;;;;;;;23.00;9.80;;;;;;;5.74;48.50;102380.88;107949;1258;74561;-75
2022/12/20 11:37:22;;;;;;;16.60;8.20;;;;;;;5.91;47.75;102372.33;107882;1260;72701;-79
2022/12/20 11:40:16;;;;;;;16.80;8.40;;;;;;;5.29;48.06;102367.47;107758;1265;59534;-78
2022/12/20 11:42:47;;;;;;;;;;;;;;;5.53;49.01;102359.98;107787;1264;72859;-81
2022/12/20 11:45:27;;;;;;;15.40;8.00;;;;;;;5.39;49.29;102358.95;107764;1269;57095;-81
2022/12/20 11:48:31;;;;;;;17.10;8.70;;;;;;;5.67;49.46;102352.89;107675;1267;61213;-79